Time;durP1;ratioP1;P1;durP2;ratioP2;P2;SDS_P1;SDS_P2;PMS_P1;PMS_P2;Temp;Humidity;BMP_temperature;BMP_pressure;BME280_temperature;BME280_humidity;BME280_pressure;Samples;Min_cycle;Max_cycle;Signal;HPM_P1;HPM_P2
2022/04/01 00:02:12;;;;;;;2.70;2.30;;;;;;;;;;5025033;28;20654;-81
2022/04/01 00:04:39;;;;;;;4.60;2.80;;;;;;;;;;5024639;28;20198;-83
2022/04/01 00:07:06;;;;;;;5.63;3.25;;;;;;;;;;5026604;28;20371;-82
2022/04/01 00:09:33;;;;;;;3.28;2.97;;;;;;;;;;5025492;28;20187;-84
2022/04/01 00:12:01;;;;;;;3.88;2.67;;;;;;;;;;5023597;28;20219;-83
2022/04/01 00:14:28;;;;;;;3.30;2.97;;;;;;;;;;5031354;28;20195;-84
2022/04/01 00:16:55;;;;;;;3.10;2.80;;;;;;;;;;5027927;28;20626;-85
2022/04/01 00:19:23;;;;;;;3.70;3.13;;;;;;;;;;5028194;28;20253;-84
2022/04/01 00:21:50;;;;;;;6.93;3.17;;;;;;;;;;5025308;28;20200;-83
2022/04/01 00:24:17;;;;;;;3.60;2.67;;;;;;;;;;5021666;28;20215;-83
2022/04/01 00:26:45;;;;;;;3.70;2.50;;;;;;;;;;5024102;28;20208;-83
2022/04/01 00:29:20;;;;;;;3.28;2.92;;;;;;;;;;5015720;28;20199;-84
2022/04/01 00:31:48;;;;;;;3.13;2.53;;;;;;;;;;5021338;28;20281;-84
2022/04/01 00:34:18;;;;;;;2.55;2.35;;;;;;;;;;5021278;28;20239;-82
2022/04/01 00:36:47;;;;;;;3.22;2.85;;;;;;;;;;5025233;28;20575;-83
2022/04/01 00:39:15;;;;;;;2.20;1.85;;;;;;;;;;5017762;28;20191;-83
2022/04/01 00:41:44;;;;;;;4.30;2.50;;;;;;;;;;5024937;28;20199;-81
2022/04/01 00:44:13;;;;;;;2.58;2.35;;;;;;;;;;5021428;28;20203;-82
2022/04/01 00:46:40;;;;;;;2.83;2.50;;;;;;;;;;5028181;28;20195;-82
2022/04/01 00:49:07;;;;;;;2.78;2.58;;;;;;;;;;5030201;28;20192;-82
2022/04/01 00:51:35;;;;;;;2.95;2.65;;;;;;;;;;5031200;28;20199;-83
2022/04/01 00:54:03;;;;;;;2.88;2.20;;;;;;;;;;5027538;28;20223;-84
2022/04/01 00:56:32;;;;;;;3.55;2.08;;;;;;;;;;5026926;28;20662;-84
2022/04/01 00:58:59;;;;;;;2.42;2.00;;;;;;;;;;5025125;28;20200;-82
2022/04/01 01:01:27;;;;;;;3.15;2.85;;;;;;;;;;5026038;28;20254;-82
2022/04/01 01:03:54;;;;;;;2.38;2.00;;;;;;;;;;5025348;28;20202;-83
2022/04/01 01:06:22;;;;;;;2.60;2.40;;;;;;;;;;5030504;28;20195;-85
2022/04/01 01:08:49;;;;;;;2.75;2.35;;;;;;;;;;5032484;28;20195;-82
2022/04/01 01:11:18;;;;;;;4.95;2.42;;;;;;;;;;5028270;28;20200;-81
2022/04/01 01:13:45;;;;;;;3.38;3.00;;;;;;;;;;5029961;28;20686;-82
2022/04/01 01:16:13;;;;;;;2.40;2.20;;;;;;;;;;5025975;28;20203;-82
2022/04/01 01:18:41;;;;;;;2.25;2.00;;;;;;;;;;5033218;28;20196;-82
2022/04/01 01:21:09;;;;;;;2.10;1.90;;;;;;;;;;5029179;28;20276;-82
2022/04/01 01:23:38;;;;;;;2.65;2.45;;;;;;;;;;5024083;28;20246;-82
2022/04/01 01:26:07;;;;;;;2.40;2.20;;;;;;;;;;5028600;28;20211;-82
2022/04/01 01:28:34;;;;;;;2.20;2.00;;;;;;;;;;5028745;28;20204;-82
2022/04/01 01:31:01;;;;;;;2.55;2.33;;;;;;;;;;5025376;28;20208;-81
2022/04/01 01:33:28;;;;;;;3.20;2.88;;;;;;;;;;5028472;28;20246;-82
2022/04/01 01:35:55;;;;;;;1.85;1.65;;;;;;;;;;5032855;28;20686;-83
2022/04/01 01:38:22;;;;;;;2.13;1.98;;;;;;;;;;5027113;28;20566;-83
2022/04/01 01:40:49;;;;;;;3.25;2.00;;;;;;;;;;5030407;28;20191;-83
2022/04/01 01:43:18;;;;;;;2.08;1.88;;;;;;;;;;5024175;28;20196;-81
2022/04/01 01:45:45;;;;;;;2.20;1.65;;;;;;;;;;5026622;28;20197;-80
2022/04/01 01:48:13;;;;;;;1.83;1.60;;;;;;;;;;5029270;28;20199;-81
2022/04/01 01:56:09;;;;;;;2.20;1.80;;;;;;;;;;5024952;28;20569;-80
2022/04/01 01:58:37;;;;;;;3.40;2.15;;;;;;;;;;5029211;28;20223;-82
2022/04/01 02:01:05;;;;;;;1.70;1.60;;;;;;;;;;5028123;28;20207;-83
2022/04/01 02:03:32;;;;;;;2.35;1.90;;;;;;;;;;5028562;28;20278;-81
2022/04/01 02:05:59;;;;;;;2.75;2.13;;;;;;;;;;5022447;28;20192;-82
2022/04/01 02:08:26;;;;;;;2.47;1.88;;;;;;;;;;5034594;28;20203;-81
2022/04/01 02:10:53;;;;;;;3.10;1.73;;;;;;;;;;5026343;28;20196;-82
2022/04/01 02:13:20;;;;;;;2.80;1.98;;;;;;;;;;5027021;28;20219;-84
2022/04/01 02:15:48;;;;;;;5.25;2.03;;;;;;;;;;5026918;28;20485;-81
2022/04/01 02:18:15;;;;;;;2.50;2.10;;;;;;;;;;5028978;28;20194;-83
2022/04/01 02:20:43;;;;;;;1.98;1.77;;;;;;;;;;5024932;28;20204;-85
2022/04/01 02:23:11;;;;;;;2.85;1.70;;;;;;;;;;5017937;28;20202;-84
2022/04/01 02:25:40;;;;;;;2.28;1.98;;;;;;;;;;5025101;28;20625;-83
2022/04/01 02:28:08;;;;;;;1.88;1.67;;;;;;;;;;5024192;28;20192;-82
2022/04/01 02:30:35;;;;;;;1.92;1.75;;;;;;;;;;5025902;28;20215;-81
2022/04/01 02:33:03;;;;;;;2.10;1.80;;;;;;;;;;5024738;28;20691;-82
2022/04/01 02:35:31;;;;;;;1.73;1.35;;;;;;;;;;5022178;28;20290;-82
2022/04/01 02:37:58;;;;;;;2.85;1.65;;;;;;;;;;5025028;28;20196;-81
2022/04/01 02:40:25;;;;;;;2.85;1.60;;;;;;;;;;5020569;28;20195;-81
2022/04/01 02:42:53;;;;;;;2.67;2.38;;;;;;;;;;5019740;28;20292;-81
2022/04/01 02:45:21;;;;;;;2.05;1.58;;;;;;;;;;5024120;28;20565;-82
2022/04/01 02:47:48;;;;;;;1.90;1.75;;;;;;;;;;5026831;28;20200;-82
2022/04/01 02:50:17;;;;;;;2.35;1.63;;;;;;;;;;5019959;28;20188;-82
2022/04/01 02:52:44;;;;;;;1.80;1.45;;;;;;;;;;5027376;28;20232;-80
2022/04/01 02:55:14;;;;;;;2.35;1.80;;;;;;;;;;5027768;28;20195;-82
2022/04/01 02:57:41;;;;;;;1.75;1.40;;;;;;;;;;5022600;28;20199;-81
2022/04/01 03:00:09;;;;;;;1.30;1.20;;;;;;;;;;5024044;28;20199;-81
2022/04/01 03:02:37;;;;;;;2.70;1.73;;;;;;;;;;5023852;28;20196;-82
2022/04/01 03:05:05;;;;;;;1.55;1.30;;;;;;;;;;5029655;28;20191;-82
2022/04/01 03:07:33;;;;;;;1.70;1.60;;;;;;;;;;5026783;28;20219;-83
2022/04/01 03:10:00;;;;;;;1.80;1.70;;;;;;;;;;5022416;28;20196;-81
2022/04/01 03:12:27;;;;;;;1.63;1.52;;;;;;;;;;5028422;28;20196;-81
2022/04/01 03:14:54;;;;;;;1.20;1.10;;;;;;;;;;5025321;28;20234;-80
2022/04/01 03:17:21;;;;;;;2.13;1.92;;;;;;;;;;5025102;28;20196;-82
2022/04/01 03:19:48;;;;;;;2.08;1.65;;;;;;;;;;5027659;28;20195;-81
2022/04/01 03:22:15;;;;;;;1.90;1.58;;;;;;;;;;5015106;28;20203;-81
2022/04/01 03:24:44;;;;;;;3.15;1.50;;;;;;;;;;5018475;28;20223;-80
2022/04/01 03:27:11;;;;;;;1.90;1.30;;;;;;;;;;5022325;28;20231;-82
2022/04/01 03:29:38;;;;;;;2.33;1.92;;;;;;;;;;5014598;28;20203;-79
2022/04/01 03:32:05;;;;;;;1.65;1.55;;;;;;;;;;5027516;28;20251;-79
2022/04/01 03:34:33;;;;;;;2.10;1.58;;;;;;;;;;5015137;28;20220;-80
2022/04/01 03:37:00;;;;;;;1.60;1.40;;;;;;;;;;5025543;28;20212;-79
2022/04/01 03:39:27;;;;;;;1.42;1.30;;;;;;;;;;5017682;28;20218;-80
2022/04/01 03:41:56;;;;;;;1.63;1.40;;;;;;;;;;5017859;28;20196;-79
2022/04/01 03:44:24;;;;;;;1.75;1.42;;;;;;;;;;5028662;28;20206;-79
2022/04/01 03:46:54;;;;;;;1.52;1.30;;;;;;;;;;5027177;28;20200;-80
2022/04/01 03:49:23;;;;;;;2.15;1.40;;;;;;;;;;5023721;28;20211;-80
2022/04/01 03:51:50;;;;;;;1.73;1.30;;;;;;;;;;5020526;28;20563;-80
2022/04/01 03:54:18;;;;;;;3.03;1.55;;;;;;;;;;5028407;28;20243;-80
2022/04/01 03:56:46;;;;;;;1.58;1.48;;;;;;;;;;5030722;28;20686;-80
2022/04/01 03:59:16;;;;;;;1.50;1.40;;;;;;;;;;5021628;28;20199;-80
2022/04/01 04:01:43;;;;;;;1.38;1.00;;;;;;;;;;5026910;28;20199;-79
2022/04/01 04:04:10;;;;;;;2.40;1.70;;;;;;;;;;5022421;28;20199;-79
2022/04/01 04:06:38;;;;;;;1.67;1.42;;;;;;;;;;5030279;28;20195;-80
2022/04/01 04:09:05;;;;;;;1.80;1.50;;;;;;;;;;5016064;28;20191;-78
2022/04/01 04:11:33;;;;;;;1.70;1.60;;;;;;;;;;5029857;28;20203;-78
2022/04/01 04:14:01;;;;;;;1.58;1.30;;;;;;;;;;5028539;28;20223;-79
2022/04/01 04:16:30;;;;;;;1.83;1.40;;;;;;;;;;5028518;28;20562;-78
2022/04/01 04:19:04;;;;;;;3.50;2.05;;;;;;;;;;5025019;28;20219;-78
2022/04/01 04:21:31;;;;;;;2.40;1.10;;;;;;;;;;5023406;28;20198;-78
2022/04/01 04:23:59;;;;;;;1.58;1.48;;;;;;;;;;5018955;28;20219;-80
2022/04/01 04:26:32;;;;;;;1.67;1.40;;;;;;;;;;5029868;28;20203;-80
2022/04/01 04:29:02;;;;;;;1.52;1.40;;;;;;;;;;5019627;28;20199;-79
2022/04/01 04:31:32;;;;;;;2.28;1.63;;;;;;;;;;5021233;28;20288;-79
2022/04/01 04:34:03;;;;;;;1.95;1.42;;;;;;;;;;5024320;28;20226;-82
2022/04/01 04:36:36;;;;;;;4.22;1.95;;;;;;;;;;5029529;28;20206;-81
2022/04/01 04:39:04;;;;;;;2.15;1.80;;;;;;;;;;5017114;28;20195;-82
2022/04/01 04:41:33;;;;;;;2.83;2.05;;;;;;;;;;5023675;28;20219;-82
2022/04/01 04:44:00;;;;;;;3.10;1.52;;;;;;;;;;5025189;28;20239;-81
2022/04/01 04:46:28;;;;;;;1.48;1.35;;;;;;;;;;5027925;28;20195;-81
2022/04/01 04:48:56;;;;;;;2.33;1.90;;;;;;;;;;5022503;28;20223;-81
2022/04/01 04:51:25;;;;;;;1.52;1.42;;;;;;;;;;5025168;28;20192;-80
2022/04/01 04:53:52;;;;;;;1.20;1.10;;;;;;;;;;5023881;28;20234;-80
2022/04/01 04:56:20;;;;;;;1.88;1.60;;;;;;;;;;5023381;28;20274;-80
2022/04/01 04:58:47;;;;;;;2.97;1.90;;;;;;;;;;5025905;28;20258;-80
2022/04/01 05:01:21;;;;;;;1.50;1.40;;;;;;;;;;5023403;28;20199;-80
2022/04/01 05:03:55;;;;;;;2.25;1.70;;;;;;;;;;5025059;28;20206;-80
2022/04/01 05:06:27;;;;;;;2.72;2.00;;;;;;;;;;5026262;28;20570;-80
2022/04/01 05:09:00;;;;;;;1.85;1.52;;;;;;;;;;5040580;28;20647;-80
2022/04/01 05:11:30;;;;;;;2.38;1.83;;;;;;;;;;5024415;28;20685;-79
2022/04/01 05:14:00;;;;;;;2.55;2.35;;;;;;;;;;5012523;28;20224;-80
2022/04/01 05:16:32;;;;;;;1.67;1.58;;;;;;;;;;5022999;28;20658;-81
2022/04/01 05:19:03;;;;;;;1.92;1.73;;;;;;;;;;5024463;28;20545;-81
2022/04/01 05:21:35;;;;;;;3.10;2.13;;;;;;;;;;5028174;28;20199;-82
2022/04/01 05:24:03;;;;;;;1.45;1.33;;;;;;;;;;5025086;28;20231;-79
2022/04/01 05:26:38;;;;;;;1.60;1.20;;;;;;;;;;5026473;28;20207;-80
2022/04/01 05:29:07;;;;;;;1.52;1.40;;;;;;;;;;5020432;28;20199;-80
2022/04/01 05:31:37;;;;;;;1.90;1.65;;;;;;;;;;5022804;28;20196;-79
2022/04/01 05:34:08;;;;;;;2.15;1.95;;;;;;;;;;5015299;28;20220;-79
2022/04/01 05:36:38;;;;;;;2.75;1.70;;;;;;;;;;5030789;28;20263;-78
2022/04/01 05:39:05;;;;;;;3.88;1.70;;;;;;;;;;5020759;28;20196;-80
2022/04/01 05:41:32;;;;;;;2.10;1.65;;;;;;;;;;5025320;28;20204;-80
2022/04/01 05:43:59;;;;;;;2.55;2.00;;;;;;;;;;5030447;28;20208;-79
2022/04/01 05:46:27;;;;;;;1.80;1.45;;;;;;;;;;5026408;28;20200;-79
2022/04/01 05:48:54;;;;;;;2.40;2.10;;;;;;;;;;5022567;28;20199;-80
2022/04/01 05:51:22;;;;;;;1.45;1.30;;;;;;;;;;5024430;28;20325;-79
2022/04/01 05:53:51;;;;;;;2.60;2.00;;;;;;;;;;5028098;28;20278;-79
2022/04/01 05:56:18;;;;;;;2.75;2.45;;;;;;;;;;5022807;28;20199;-79
2022/04/01 05:58:46;;;;;;;2.60;1.83;;;;;;;;;;5024774;28;20192;-82
2022/04/01 06:01:16;;;;;;;3.28;1.80;;;;;;;;;;5029222;28;20198;-81
2022/04/01 06:03:49;;;;;;;2.22;1.98;;;;;;;;;;5023153;28;20579;-81
2022/04/01 06:06:22;;;;;;;1.83;1.73;;;;;;;;;;5028926;28;20275;-80
2022/04/01 06:08:59;;;;;;;2.45;1.65;;;;;;;;;;5029912;28;20215;-80
2022/04/01 06:11:34;;;;;;;2.65;1.95;;;;;;;;;;5027541;28;20203;-80
2022/04/01 06:14:02;;;;;;;2.88;1.65;;;;;;;;;;5028444;28;20242;-80
2022/04/01 06:16:35;;;;;;;1.38;1.27;;;;;;;;;;5026018;28;20198;-81
2022/04/01 06:19:08;;;;;;;1.60;1.50;;;;;;;;;;5028348;28;20208;-83
2022/04/01 06:21:38;;;;;;;1.65;1.40;;;;;;;;;;5028531;28;20204;-79
2022/04/01 06:24:09;;;;;;;2.10;1.90;;;;;;;;;;5026747;28;20321;-79
2022/04/01 06:26:39;;;;;;;2.50;2.30;;;;;;;;;;5027016;28;20207;-78
2022/04/01 06:29:12;;;;;;;2.25;1.90;;;;;;;;;;5027586;28;20207;-78
2022/04/01 06:31:42;;;;;;;1.42;1.33;;;;;;;;;;5027867;28;20286;-78
2022/04/01 06:34:12;;;;;;;1.60;1.40;;;;;;;;;;5028074;28;20223;-78
2022/04/01 06:36:40;;;;;;;1.77;1.67;;;;;;;;;;5026509;28;20191;-78
2022/04/01 06:39:10;;;;;;;2.10;1.77;;;;;;;;;;5028569;28;20202;-78
2022/04/01 06:41:41;;;;;;;2.25;1.85;;;;;;;;;;5023740;28;20193;-79
2022/04/01 06:44:08;;;;;;;1.73;1.60;;;;;;;;;;5028027;28;20195;-78
2022/04/01 06:46:35;;;;;;;2.30;2.10;;;;;;;;;;5030962;28;20315;-77
2022/04/01 06:49:07;;;;;;;1.88;1.63;;;;;;;;;;5021633;28;20195;-78
2022/04/01 06:51:34;;;;;;;2.33;1.70;;;;;;;;;;5024019;28;20273;-78
2022/04/01 06:54:01;;;;;;;2.90;2.38;;;;;;;;;;5023025;28;20192;-78
2022/04/01 06:56:30;;;;;;;3.28;1.92;;;;;;;;;;5027171;28;20197;-78
2022/04/01 06:58:57;;;;;;;2.10;1.85;;;;;;;;;;5025464;28;20191;-80
2022/04/01 07:01:25;;;;;;;1.95;1.75;;;;;;;;;;5026287;28;20200;-80
2022/04/01 07:03:52;;;;;;;2.72;1.70;;;;;;;;;;5024521;28;20199;-81
2022/04/01 07:06:19;;;;;;;2.30;2.08;;;;;;;;;;5030163;28;20199;-79
2022/04/01 07:08:47;;;;;;;2.55;1.83;;;;;;;;;;5029152;28;20199;-80
2022/04/01 07:11:14;;;;;;;2.97;2.35;;;;;;;;;;5023836;28;20236;-84
2022/04/01 07:13:44;;;;;;;2.28;1.85;;;;;;;;;;5027766;28;20204;-83
2022/04/01 07:16:13;;;;;;;1.83;1.60;;;;;;;;;;5028081;28;20226;-80
2022/04/01 07:18:40;;;;;;;2.30;2.10;;;;;;;;;;5025971;28;20223;-83
2022/04/01 07:21:08;;;;;;;3.35;1.50;;;;;;;;;;5025028;28;20196;-83
2022/04/01 07:23:36;;;;;;;2.25;2.05;;;;;;;;;;5024984;28;20195;-82
2022/04/01 07:26:04;;;;;;;2.40;2.00;;;;;;;;;;5029506;28;20211;-84
2022/04/01 07:28:31;;;;;;;2.05;1.85;;;;;;;;;;5028920;28;20200;-81
2022/04/01 07:32:28;;;;;;;2.00;1.80;;;;;;;;;;5020139;28;20195;-81
2022/04/01 07:33:46;;;;;;;3.58;1.90;;;;;;;;;;5022918;28;20196;-82
2022/04/01 07:36:13;;;;;;;3.65;1.90;;;;;;;;;;5029118;28;20219;-84
2022/04/01 07:38:40;;;;;;;2.38;2.17;;;;;;;;;;5027486;28;20199;-77
2022/04/01 07:41:07;;;;;;;2.10;1.65;;;;;;;;;;5028494;28;20214;-80
2022/04/01 07:43:36;;;;;;;3.25;2.40;;;;;;;;;;5024739;28;20192;-80
2022/04/01 07:46:05;;;;;;;3.85;2.25;;;;;;;;;;5021519;28;20200;-77
2022/04/01 07:48:32;;;;;;;2.55;2.25;;;;;;;;;;5021889;28;20217;-81
2022/04/01 07:50:59;;;;;;;2.22;1.83;;;;;;;;;;5024677;28;20212;-79
2022/04/01 07:53:26;;;;;;;2.00;1.80;;;;;;;;;;5020485;28;20200;-80
2022/04/01 07:55:53;;;;;;;2.25;2.05;;;;;;;;;;5024243;28;20215;-81
2022/04/01 07:58:21;;;;;;;2.28;1.85;;;;;;;;;;5017863;28;20200;-77
2022/04/01 08:00:48;;;;;;;5.30;2.40;;;;;;;;;;5024810;28;20202;-80
2022/04/01 08:03:16;;;;;;;4.03;2.13;;;;;;;;;;5021405;28;20196;-82
2022/04/01 08:05:43;;;;;;;2.97;2.75;;;;;;;;;;5026760;28;20624;-82
2022/04/01 08:08:10;;;;;;;4.03;2.83;;;;;;;;;;5027556;28;20204;-82
2022/04/01 08:10:37;;;;;;;2.35;2.15;;;;;;;;;;5023912;28;20210;-83
2022/04/01 08:13:04;;;;;;;2.50;2.30;;;;;;;;;;5025885;28;20220;-81
2022/04/01 08:15:32;;;;;;;4.65;2.85;;;;;;;;;;5029142;28;20713;-82
2022/04/01 08:17:59;;;;;;;2.53;2.15;;;;;;;;;;5028594;28;20202;-83
2022/04/01 08:20:27;;;;;;;2.15;1.95;;;;;;;;;;5031656;28;20192;-83
2022/04/01 08:22:54;;;;;;;4.20;3.17;;;;;;;;;;5027107;28;20199;-83
2022/04/01 08:25:21;;;;;;;2.95;2.42;;;;;;;;;;5027518;28;20728;-83
2022/04/01 08:27:48;;;;;;;1.92;1.80;;;;;;;;;;5022365;28;20195;-79
2022/04/01 08:30:15;;;;;;;2.10;1.70;;;;;;;;;;5018497;28;20206;-79
2022/04/01 08:32:42;;;;;;;2.42;2.22;;;;;;;;;;5021494;28;20198;-80
2022/04/01 08:35:10;;;;;;;2.47;2.10;;;;;;;;;;5019072;28;20222;-81
2022/04/01 08:37:39;;;;;;;2.50;2.03;;;;;;;;;;5026407;28;20203;-82
2022/04/01 08:40:08;;;;;;;2.78;2.42;;;;;;;;;;5021490;28;20191;-81
2022/04/01 08:42:36;;;;;;;3.65;2.45;;;;;;;;;;5021368;28;20200;-80
2022/04/01 08:45:06;;;;;;;2.85;2.20;;;;;;;;;;5026992;28;20203;-80
2022/04/01 08:47:33;;;;;;;3.20;2.20;;;;;;;;;;5025892;28;20195;-81
2022/04/01 08:50:00;;;;;;;2.25;2.05;;;;;;;;;;5014091;28;20195;-81
2022/04/01 08:52:27;;;;;;;2.28;2.08;;;;;;;;;;5027151;28;20195;-81
2022/04/01 08:54:55;;;;;;;2.90;2.28;;;;;;;;;;5025642;28;20675;-81
2022/04/01 08:57:23;;;;;;;2.65;2.15;;;;;;;;;;5023300;28;20488;-81
2022/04/01 08:59:50;;;;;;;2.50;1.92;;;;;;;;;;5017973;28;20207;-81
2022/04/01 09:02:17;;;;;;;2.20;2.00;;;;;;;;;;5017892;28;20562;-80
2022/04/01 09:04:51;;;;;;;2.35;1.58;;;;;;;;;;5011441;28;20219;-81
2022/04/01 09:07:18;;;;;;;2.10;1.90;;;;;;;;;;5015454;28;20207;-81
2022/04/01 09:09:45;;;;;;;2.53;1.95;;;;;;;;;;5023953;28;20234;-81
2022/04/01 09:12:15;;;;;;;2.28;2.05;;;;;;;;;;5024888;28;20199;-81
2022/04/01 09:14:42;;;;;;;2.22;1.80;;;;;;;;;;5025512;28;20663;-81
2022/04/01 09:17:11;;;;;;;1.77;1.60;;;;;;;;;;5030659;28;20590;-82
2022/04/01 09:19:39;;;;;;;2.25;1.65;;;;;;;;;;5019326;28;20200;-81
2022/04/01 09:22:17;;;;;;;2.13;1.77;;;;;;;;;;5032001;28;20192;-82
2022/04/01 09:24:53;;;;;;;3.90;2.30;;;;;;;;;;5032801;28;20224;-81
2022/04/01 09:27:35;;;;;;;3.10;2.05;;;;;;;;;;5026278;28;20531;-81
2022/04/01 09:30:02;;;;;;;2.60;2.40;;;;;;;;;;5031927;28;20192;-81
2022/04/01 09:32:36;;;;;;;2.53;2.28;;;;;;;;;;5029919;28;20658;-81
2022/04/01 09:35:04;;;;;;;2.78;2.20;;;;;;;;;;5031168;28;20187;-81
2022/04/01 09:37:37;;;;;;;2.70;2.50;;;;;;;;;;5023464;28;20686;-81
2022/04/01 09:40:05;;;;;;;2.20;2.00;;;;;;;;;;5023258;28;20246;-81
2022/04/01 09:42:33;;;;;;;2.85;1.95;;;;;;;;;;5024972;28;20199;-80
2022/04/01 09:45:01;;;;;;;2.00;1.70;;;;;;;;;;5031769;28;20192;-81
2022/04/01 09:47:28;;;;;;;3.42;2.30;;;;;;;;;;5033075;28;20192;-80
2022/04/01 09:49:55;;;;;;;2.90;2.45;;;;;;;;;;5020636;28;20198;-81
2022/04/01 09:52:22;;;;;;;2.75;1.73;;;;;;;;;;5030249;28;20195;-80
2022/04/01 09:54:50;;;;;;;2.42;2.20;;;;;;;;;;5031862;28;20202;-79
2022/04/01 09:57:20;;;;;;;2.38;1.92;;;;;;;;;;5030267;28;20199;-81
2022/04/01 09:59:49;;;;;;;2.47;1.77;;;;;;;;;;5032567;28;20215;-81
2022/04/01 10:02:17;;;;;;;3.72;1.70;;;;;;;;;;5031678;28;20255;-81
2022/04/01 10:04:44;;;;;;;7.43;2.67;;;;;;;;;;5028567;28;20202;-79
2022/04/01 10:07:12;;;;;;;3.13;2.80;;;;;;;;;;5031175;28;20677;-80
2022/04/01 10:09:41;;;;;;;2.47;2.28;;;;;;;;;;5031982;28;20196;-80
2022/04/01 10:12:10;;;;;;;2.92;2.40;;;;;;;;;;5022851;28;20200;-81
2022/04/01 10:14:40;;;;;;;2.95;1.73;;;;;;;;;;5031494;28;20195;-82
2022/04/01 10:17:10;;;;;;;3.08;2.72;;;;;;;;;;5030064;28;20714;-81
2022/04/01 10:19:40;;;;;;;2.75;2.20;;;;;;;;;;5024727;28;20199;-81
2022/04/01 10:22:07;;;;;;;2.78;2.42;;;;;;;;;;5029001;28;20196;-79
2022/04/01 10:24:37;;;;;;;2.85;1.95;;;;;;;;;;5030807;28;20215;-82
2022/04/01 10:27:09;;;;;;;2.97;2.67;;;;;;;;;;5029083;28;20215;-83
2022/04/01 10:29:36;;;;;;;4.45;3.00;;;;;;;;;;5022697;28;20211;-81
2022/04/01 10:32:25;;;;;;;4.40;2.60;;;;;;;;;;5029898;28;20191;-82
2022/04/01 10:34:53;;;;;;;4.47;2.30;;;;;;;;;;5019409;28;20730;-83
2022/04/01 10:37:23;;;;;;;2.42;2.05;;;;;;;;;;5018723;28;20219;-82
2022/04/01 10:39:50;;;;;;;3.30;2.10;;;;;;;;;;5029221;28;20196;-82
2022/04/01 10:42:17;;;;;;;4.25;2.65;;;;;;;;;;5023927;28;20250;-83
2022/04/01 10:44:48;;;;;;;3.58;2.40;;;;;;;;;;5017935;28;20204;-80
2022/04/01 10:47:15;;;;;;;2.28;2.08;;;;;;;;;;5020000;28;20231;-83
2022/04/01 10:52:30;;;;;;;2.63;2.40;;;;;;;;;;5018203;28;20306;-82
2022/04/01 10:55:08;;;;;;;4.00;2.50;;;;;;;;;;5035701;28;20658;-82
2022/04/01 10:57:40;;;;;;;2.97;2.10;;;;;;;;;;5023269;28;20662;-78
2022/04/01 11:00:08;;;;;;;3.15;2.17;;;;;;;;;;5021573;28;20203;-80
2022/04/01 11:02:35;;;;;;;3.70;2.47;;;;;;;;;;5026318;28;20274;-77
2022/04/01 11:05:22;;;;;;;2.80;2.30;;;;;;;;;;5027511;28;20230;-85
2022/04/01 11:08:09;;;;;;;5.75;2.35;;;;;;;;;;5022163;28;20188;-82
2022/04/01 11:10:36;;;;;;;3.50;2.60;;;;;;;;;;5028240;28;20207;-79
2022/04/01 11:13:03;;;;;;;3.47;2.90;;;;;;;;;;5029231;28;20202;-81
2022/04/01 11:15:30;;;;;;;3.50;2.70;;;;;;;;;;5025916;28;20547;-82
2022/04/01 11:18:08;;;;;;;4.70;3.10;;;;;;;;;;5024129;28;20561;-82
2022/04/01 11:20:39;;;;;;;2.95;2.63;;;;;;;;;;5027687;28;20199;-79
2022/04/01 11:23:15;;;;;;;5.85;3.40;;;;;;;;;;5021322;28;20210;-81
2022/04/01 11:25:59;;;;;;;2.85;2.55;;;;;;;;;;5026865;28;20233;-82
2022/04/01 11:28:27;;;;;;;2.50;2.20;;;;;;;;;;5027619;28;20615;-85
2022/04/01 11:31:10;;;;;;;3.58;3.25;;;;;;;;;;5029198;28;20191;-83
2022/04/01 11:33:38;;;;;;;3.38;3.03;;;;;;;;;;5021898;28;20210;-80
2022/04/01 11:36:07;;;;;;;3.03;2.70;;;;;;;;;;5019886;28;20215;-86
2022/04/01 11:38:34;;;;;;;5.45;3.30;;;;;;;;;;5025286;28;20291;-83
2022/04/01 11:41:03;;;;;;;4.45;2.85;;;;;;;;;;5023064;28;20204;-82
2022/04/01 11:43:30;;;;;;;3.67;2.90;;;;;;;;;;5021553;28;20196;-80
2022/04/01 11:45:58;;;;;;;5.65;2.92;;;;;;;;;;5027593;28;20196;-81
2022/04/01 11:48:28;;;;;;;2.92;2.65;;;;;;;;;;5014439;28;20571;-79
2022/04/01 11:50:57;;;;;;;4.13;2.90;;;;;;;;;;5026275;28;20196;-84
2022/04/01 11:53:26;;;;;;;4.05;2.45;;;;;;;;;;5024051;28;20203;-78
2022/04/01 11:55:54;;;;;;;2.78;2.53;;;;;;;;;;5028420;28;20219;-82
2022/04/01 11:58:21;;;;;;;3.03;2.78;;;;;;;;;;5020198;28;20234;-83
2022/04/01 12:00:49;;;;;;;7.85;3.00;;;;;;;;;;5025060;28;20196;-79
2022/04/01 12:03:18;;;;;;;3.80;2.75;;;;;;;;;;5024880;28;20238;-81
2022/04/01 12:05:45;;;;;;;4.30;3.22;;;;;;;;;;5027609;28;20200;-80
2022/04/01 12:11:00;;;;;;;2.78;2.53;;;;;;;;;;5026067;28;20744;-82
2022/04/01 12:13:28;;;;;;;4.50;3.03;;;;;;;;;;5027353;28;20206;-79
2022/04/01 12:15:56;;;;;;;3.92;3.30;;;;;;;;;;5026739;28;20223;-85
2022/04/01 12:18:24;;;;;;;3.63;2.17;;;;;;;;;;5008916;28;20201;-81
2022/04/01 12:20:53;;;;;;;2.80;2.60;;;;;;;;;;5020710;28;20207;-79
2022/04/01 12:23:21;;;;;;;3.92;3.03;;;;;;;;;;5019460;28;20203;-81
2022/04/01 12:25:50;;;;;;;3.22;2.75;;;;;;;;;;5025538;28;20203;-78
2022/04/01 12:28:19;;;;;;;2.95;2.35;;;;;;;;;;5027721;28;20650;-76
2022/04/01 12:30:48;;;;;;;2.72;2.10;;;;;;;;;;5026852;28;20195;-82
2022/04/01 12:33:17;;;;;;;5.03;3.65;;;;;;;;;;5021690;28;20207;-79
2022/04/01 12:35:49;;;;;;;3.75;2.60;;;;;;;;;;5018017;28;20192;-77
2022/04/01 12:38:17;;;;;;;2.63;2.40;;;;;;;;;;5026784;28;20210;-80
2022/04/01 12:40:55;;;;;;;4.43;2.53;;;;;;;;;;5025039;28;20192;-80
2022/04/01 12:43:34;;;;;;;2.50;2.30;;;;;;;;;;5030842;28;20650;-82
2022/04/01 12:46:01;;;;;;;3.30;2.30;;;;;;;;;;5027373;28;20198;-82
2022/04/01 12:48:29;;;;;;;2.40;2.20;;;;;;;;;;5032245;28;20195;-82
2022/04/01 12:50:58;;;;;;;3.08;2.75;;;;;;;;;;5034766;28;20230;-82
2022/04/01 12:53:25;;;;;;;2.80;2.60;;;;;;;;;;5028210;28;20192;-81
2022/04/01 12:55:53;;;;;;;3.70;2.40;;;;;;;;;;5033976;28;20278;-83
2022/04/01 12:58:22;;;;;;;4.05;2.45;;;;;;;;;;5031206;28;20557;-82
2022/04/01 13:00:51;;;;;;;3.55;3.25;;;;;;;;;;5032846;28;20188;-82
2022/04/01 13:03:18;;;;;;;4.43;3.10;;;;;;;;;;5030864;28;20200;-83
2022/04/01 13:05:45;;;;;;;2.63;2.42;;;;;;;;;;5034489;28;20558;-82
2022/04/01 13:08:12;;;;;;;4.00;2.92;;;;;;;;;;5033644;28;20677;-83
2022/04/01 13:10:39;;;;;;;2.72;2.45;;;;;;;;;;5033898;28;20195;-83
2022/04/01 13:13:17;;;;;;;2.92;2.60;;;;;;;;;;5032146;28;20206;-85
2022/04/01 13:15:52;;;;;;;4.65;2.70;;;;;;;;;;5033607;28;20191;-84
2022/04/01 13:18:23;;;;;;;3.30;2.45;;;;;;;;;;5031766;28;20511;-84
2022/04/01 13:20:50;;;;;;;4.60;2.50;;;;;;;;;;5034672;28;20262;-81
2022/04/01 13:23:17;;;;;;;3.30;3.00;;;;;;;;;;5033947;28;20228;-82
2022/04/01 13:25:44;;;;;;;3.35;2.15;;;;;;;;;;5029654;28;20205;-82
2022/04/01 13:28:12;;;;;;;2.92;2.53;;;;;;;;;;5026872;28;20578;-82
2022/04/01 13:30:39;;;;;;;3.10;2.30;;;;;;;;;;5027639;28;20202;-80
2022/04/01 13:33:08;;;;;;;3.65;2.58;;;;;;;;;;5024090;28;20338;-80
2022/04/01 13:35:35;;;;;;;2.60;2.40;;;;;;;;;;5031546;28;20226;-82
2022/04/01 13:38:02;;;;;;;3.88;2.60;;;;;;;;;;5026720;28;20223;-81
2022/04/01 13:40:29;;;;;;;4.03;2.80;;;;;;;;;;5033102;28;20226;-81
2022/04/01 13:42:57;;;;;;;3.17;2.67;;;;;;;;;;5029293;28;20205;-80
2022/04/01 13:45:26;;;;;;;2.78;2.58;;;;;;;;;;5033602;28;20202;-79
2022/04/01 13:47:54;;;;;;;2.47;2.28;;;;;;;;;;5033613;28;20207;-79
2022/04/01 13:50:23;;;;;;;5.20;2.85;;;;;;;;;;5030325;28;20219;-83
2022/04/01 13:52:50;;;;;;;3.47;2.35;;;;;;;;;;5030866;28;20196;-80
2022/04/01 13:55:17;;;;;;;4.72;2.20;;;;;;;;;;5034059;28;20198;-80
2022/04/01 13:57:46;;;;;;;3.03;2.70;;;;;;;;;;5032911;28;20219;-80
2022/04/01 14:00:15;;;;;;;3.88;2.47;;;;;;;;;;5029320;28;20195;-79
2022/04/01 14:02:43;;;;;;;3.03;2.25;;;;;;;;;;5032823;28;20634;-79
2022/04/01 14:05:11;;;;;;;2.40;2.20;;;;;;;;;;5028536;28;20199;-80
2022/04/01 14:07:41;;;;;;;2.70;2.20;;;;;;;;;;5027135;28;20219;-81
2022/04/01 14:10:08;;;;;;;2.47;2.25;;;;;;;;;;5034215;28;20227;-81
2022/04/01 14:12:35;;;;;;;4.75;2.60;;;;;;;;;;5026505;28;20207;-80
2022/04/01 14:15:03;;;;;;;3.00;2.40;;;;;;;;;;5030259;28;20207;-79
2022/04/01 14:17:33;;;;;;;3.20;2.88;;;;;;;;;;5031797;28;20215;-83
2022/04/01 14:20:00;;;;;;;2.63;2.30;;;;;;;;;;5033673;28;20192;-80
2022/04/01 14:22:27;;;;;;;2.67;2.00;;;;;;;;;;5027642;28;20263;-79
2022/04/01 14:24:56;;;;;;;3.13;2.20;;;;;;;;;;5036692;28;20656;-78
2022/04/01 14:27:23;;;;;;;8.82;2.80;;;;;;;;;;5032642;28;20206;-82
2022/04/01 14:32:36;;;;;;;2.88;2.30;;;;;;;;;;5029621;28;20669;-79
2022/04/01 14:35:03;;;;;;;2.58;1.85;;;;;;;;;;5032434;28;20191;-81
2022/04/01 14:37:30;;;;;;;2.97;2.38;;;;;;;;;;5025586;28;20714;-80
2022/04/01 14:39:58;;;;;;;2.35;2.03;;;;;;;;;;5031481;28;20203;-80
2022/04/01 14:42:25;;;;;;;2.40;2.20;;;;;;;;;;5029054;28;20214;-85
2022/04/01 14:44:52;;;;;;;2.60;2.40;;;;;;;;;;5031329;28;20196;-81
2022/04/01 14:47:20;;;;;;;2.63;2.05;;;;;;;;;;5032713;28;20191;-80
2022/04/01 14:49:47;;;;;;;2.70;1.95;;;;;;;;;;5022817;28;20203;-78
2022/04/01 14:52:14;;;;;;;3.47;2.15;;;;;;;;;;5026991;28;20211;-82
2022/04/01 14:54:41;;;;;;;3.50;1.85;;;;;;;;;;5032493;28;20195;-81
2022/04/01 14:57:09;;;;;;;2.83;2.63;;;;;;;;;;5025591;28;20247;-80
2022/04/01 14:59:36;;;;;;;2.75;2.10;;;;;;;;;;5020853;28;20203;-79
2022/04/01 15:02:03;;;;;;;2.22;1.95;;;;;;;;;;5029441;28;20200;-80
2022/04/01 15:04:30;;;;;;;3.75;1.75;;;;;;;;;;5022556;28;20199;-81
2022/04/01 15:06:57;;;;;;;2.30;2.10;;;;;;;;;;5025623;28;20199;-82